Sagar Kanya — VTJR — position and weather

sailwx.info

Track history (hours):
 
Tides and Currents Weather Stations Pressure Air Temp Water Temp Dewpoint Dewpoint Depression Visibility Wind Speed Wind Dir Waves Ship Positions

Oceanographic research ship Sagar Kanya (India)

Detailed information on ship capabilities available from University of Delaware's Ocean Information Center.

Last reported at 2019-Dec-11 03:03 UTC. Time now 2019-Dec-12 08:59 UTC.
Position N 15°24' E 073°48'.

Type: Other ship. MMSI: 419320000.

Wind from 060 at 8 knots

Barometer 1013.1 mb
Air temperature 25.0 ° C

Date/timePositionNaut miles runAvg speedWind from/ knotsBaromVisibWave heightAir tempDewpointWater temp
2019-Dec-11 03:03N 15°24' E 073°48'0 0.0 060 / 81013.1 25.0
2019-Dec-11 00:03N 15°24' E 073°48'0 0.0 060 / 61011.0 25.1
2019-Dec-10 21:03N 15°24' E 073°48'0 0.0 060 / 41011.1 25.3
2019-Dec-10 17:33N 15°24' E 073°48'0 0.0 050 / 61012.3 27.4
2019-Dec-10 15:03N 15°24' E 073°48'0 0.0 020 / 61011.6 28.4
2019-Dec-10 11:33N 15°24' E 073°48'0 0.0 300 / 41009.1 30.0
2019-Dec-10 09:03N 15°24' E 073°48'0 0.0 240 / 61009.9 30.7
2019-Dec-10 06:03N 15°24' E 073°48'0 0.0 060 / 101013.6 28.7
2019-Dec-10 03:03N 15°24' E 073°48'0 0.0 080 / 81013.8 26.4
2019-Dec-09 23:33N 15°24' E 073°48'0 0.0 070 / 61011.3 25.9
2019-Dec-09 21:03N 15°24' E 073°48'0 0.0 020 / 41011.8 26.9
2019-Dec-09 18:03N 15°24' E 073°48'0 0.0 020 / 61013.3 28.0
2019-Dec-09 15:03N 15°24' E 073°48'6 1.9 350 / 81013.2 28.3
2019-Dec-09 12:03N 15°24' E 073°42'6 2.0 290 / 121010.8 28.7
2019-Dec-09 09:03N 15°18' E 073°42'19 6.3 210 / 81011.3 28.4
2019-Dec-09 06:03N 15°00' E 073°36'24 8.0 110 / 171013.9 27.9
2019-Dec-09 03:03N 14°36' E 073°36'24 8.0 080 / 191013.2 27.7
2019-Dec-09 00:03N 14°12' E 073°36'54 9.1 080 / 161010.8 27.7
2019-Dec-08 18:03N 13°18' E 073°30'48 8.1 1013.0 28.1
2019-Dec-08 12:03N 12°30' E 073°36'24 8.0 350 / 41011.2 28.4
2019-Dec-08 09:03N 12°06' E 073°36'31 8.7 040 / 81011.1 28.6
2019-Dec-08 05:33N 11°36' E 073°42'19 7.6 050 / 81014.0 28.6
2019-Dec-08 03:03N 11°18' E 073°48'18 6.0 060 / 101013.4 28.2
2019-Dec-08 00:03N 11°00' E 073°48'17 5.6 100 / 61011.3 28.3
2019-Dec-07 21:03N 10°48' E 073°36'30 5.0 070 / 61011.0 28.0
2019-Dec-07 15:03N 10°18' E 073°36'25 8.2 090 / 81012.0 28.4
2019-Dec-07 12:03N 09°54' E 073°30'8 2.8 080 / 121009.5 28.5
2019-Dec-07 09:04N 09°48' E 073°24'6 2.0 060 / 141009.8 28.7
2019-Dec-07 06:04N 09°42' E 073°24'3010.0 090 / 171012.1 28.9
2019-Dec-07 03:04N 09°12' E 073°24'25 8.2 080 / 101012.3 28.7
2019-Dec-07 00:04N 08°48' E 073°18'25 8.2 090 / 171009.6 28.6
2019-Dec-06 21:04N 08°24' E 073°12'22 7.2 070 / 101009.6 27.7
2019-Dec-06 18:04N 08°06' E 073°00'13 4.5 160 / 61011.9 28.4
2019-Dec-06 15:04N 08°18' E 072°54'8 2.8 120 / 41011.5 28.8
2019-Dec-06 12:04N 08°24' E 072°48'0 0.0 090 / 81009.1 29.3
2019-Dec-06 08:34N 08°24' E 072°48'13 5.3 070 / 81010.0 30.5
2019-Dec-06 06:04N 08°30' E 073°00'17 5.6 090 / 101012.0 29.3
2019-Dec-06 03:04N 08°18' E 073°12'6 1.7 100 / 121012.4 28.7
2019-Dec-05 23:34N 08°24' E 073°12'6 2.4 080 / 121010.1 28.2
2019-Dec-05 21:04N 08°18' E 073°12'0 0.0 090 / 141010.3 28.1
2019-Dec-05 18:04N 08°18' E 073°12'0 0.0 120 / 171012.9 26.7
2019-Dec-05 15:04N 08°18' E 073°12'6 2.0 100 / 101012.2 28.4
2019-Dec-05 12:04N 08°18' E 073°18'6 2.0 120 / 101009.7 28.3
2019-Dec-05 09:04N 08°12' E 073°18'6 1.7 080 / 121009.8 28.4
2019-Dec-05 05:34N 08°18' E 073°18'0 0.0 140 / 61014.0 28.4
2019-Dec-05 03:04N 08°18' E 073°18'6 2.0 170 / 101013.8 27.5
2019-Dec-05 00:04N 08°18' E 073°12'6 2.0 160 / 121010.8 27.0
2019-Dec-04 21:04N 08°18' E 073°06'8 2.8 160 / 141010.9 27.5
2019-Dec-04 18:04N 08°12' E 073°12'6 2.0 130 / 121012.9 28.5
2019-Dec-04 15:04N 08°18' E 073°12'13 3.8 110 / 81012.4 28.4
2019-Dec-04 11:34N 08°06' E 073°18'6 2.4 020 / 41009.2 28.4
2019-Dec-04 09:04N 08°12' E 073°18'6 2.0 080 / 21009.3 28.7
2019-Dec-04 06:04N 08°12' E 073°12'6 2.0 050 1011.8 30.8
2019-Dec-04 03:04N 08°12' E 073°18'8 2.4 130 / 21011.7 28.6
2019-Dec-03 23:34N 08°18' E 073°12'0 0.0 230 / 21008.9 25.8
2019-Dec-03 21:04N 08°18' E 073°12'6 1.7 080 / 21009.5 24.0
2019-Dec-03 17:34N 08°18' E 073°18'6 2.4 070 / 21011.6 25.6
2019-Dec-03 15:04N 08°18' E 073°12'0 0.0 100 / 101010.6 27.7
2019-Dec-03 12:04N 08°18' E 073°12'6 2.0 090 / 141008.4 25.1
2019-Dec-03 09:04N 08°18' E 073°06'13 3.8 150 / 81008.1 29.5
2019-Dec-03 05:34N 08°12' E 073°18'6 2.4 140 / 121011.2 29.1
2019-Dec-03 03:04N 08°18' E 073°18'13 3.8 150 / 121011.1 28.4
2019-Dec-02 23:34N 08°30' E 073°12'0 0.0 180 / 141008.4 27.5
2019-Dec-02 21:04N 08°30' E 073°12'6 2.0 150 / 191008.3 27.4
2019-Dec-02 18:04N 08°24' E 073°12'6 2.0 160 / 161010.4 28.3
2019-Dec-02 15:04N 08°18' E 073°12'8 2.8 180 / 161010.4 28.1
2019-Dec-02 12:04N 08°12' E 073°18'6 2.0 190 / 161007.9 28.4
2019-Dec-02 09:04N 08°18' E 073°18'6 2.0 230 / 141007.9 28.1
2019-Dec-02 06:04N 08°12' E 073°18'6 2.0 200 / 121010.8 28.8
2019-Dec-02 03:04N 08°18' E 073°18'8 2.8 180 / 141010.2 27.0
2019-Dec-02 00:04N 08°24' E 073°12'25 8.2 250 / 191007.6 26.9
2019-Dec-01 21:04N 08°48' E 073°06'31 8.7 140 / 101007.7 26.1
2019-Dec-01 17:34N 09°18' E 073°00'   110 / 141010.2 27.7
Track history (hours):
 
Tides and Currents Weather Stations Pressure Air Temp Water Temp Dewpoint Dewpoint Depression Visibility Wind Speed Wind Dir Waves Ship Positions

Oceanographic research ship Sagar Kanya (India)

Detailed information on ship capabilities available from University of Delaware's Ocean Information Center.

Last reported at 2019-Dec-11 03:03 UTC. Time now 2019-Dec-12 08:59 UTC.
Position N 15°24' E 073°48'.

Type: Other ship. MMSI: 419320000.

Wind from 060 at 8 knots

Barometer 1013.1 mb
Air temperature 25.0 ° C

Date/timePositionNaut miles runAvg speedWind from/ knotsBaromVisibWave heightAir tempDewpointWater temp
2019-Dec-11 03:03N 15°24' E 073°48'0 0.0 060 / 81013.1 25.0
2019-Dec-11 00:03N 15°24' E 073°48'0 0.0 060 / 61011.0 25.1
2019-Dec-10 21:03N 15°24' E 073°48'0 0.0 060 / 41011.1 25.3
2019-Dec-10 17:33N 15°24' E 073°48'0 0.0 050 / 61012.3 27.4
2019-Dec-10 15:03N 15°24' E 073°48'0 0.0 020 / 61011.6 28.4
2019-Dec-10 11:33N 15°24' E 073°48'0 0.0 300 / 41009.1 30.0
2019-Dec-10 09:03N 15°24' E 073°48'0 0.0 240 / 61009.9 30.7
2019-Dec-10 06:03N 15°24' E 073°48'0 0.0 060 / 101013.6 28.7
2019-Dec-10 03:03N 15°24' E 073°48'0 0.0 080 / 81013.8 26.4
2019-Dec-09 23:33N 15°24' E 073°48'0 0.0 070 / 61011.3 25.9
2019-Dec-09 21:03N 15°24' E 073°48'0 0.0 020 / 41011.8 26.9
2019-Dec-09 18:03N 15°24' E 073°48'0 0.0 020 / 61013.3 28.0
2019-Dec-09 15:03N 15°24' E 073°48'6 1.9 350 / 81013.2 28.3
2019-Dec-09 12:03N 15°24' E 073°42'6 2.0 290 / 121010.8 28.7
2019-Dec-09 09:03N 15°18' E 073°42'19 6.3 210 / 81011.3 28.4
2019-Dec-09 06:03N 15°00' E 073°36'24 8.0 110 / 171013.9 27.9
2019-Dec-09 03:03N 14°36' E 073°36'24 8.0 080 / 191013.2 27.7
2019-Dec-09 00:03N 14°12' E 073°36'54 9.1 080 / 161010.8 27.7
2019-Dec-08 18:03N 13°18' E 073°30'48 8.1 1013.0 28.1
2019-Dec-08 12:03N 12°30' E 073°36'24 8.0 350 / 41011.2 28.4
2019-Dec-08 09:03N 12°06' E 073°36'31 8.7 040 / 81011.1 28.6
2019-Dec-08 05:33N 11°36' E 073°42'19 7.6 050 / 81014.0 28.6
2019-Dec-08 03:03N 11°18' E 073°48'18 6.0 060 / 101013.4 28.2
2019-Dec-08 00:03N 11°00' E 073°48'17 5.6 100 / 61011.3 28.3
2019-Dec-07 21:03N 10°48' E 073°36'30 5.0 070 / 61011.0 28.0
2019-Dec-07 15:03N 10°18' E 073°36'25 8.2 090 / 81012.0 28.4
2019-Dec-07 12:03N 09°54' E 073°30'8 2.8 080 / 121009.5 28.5
2019-Dec-07 09:04N 09°48' E 073°24'6 2.0 060 / 141009.8 28.7
2019-Dec-07 06:04N 09°42' E 073°24'3010.0 090 / 171012.1 28.9
2019-Dec-07 03:04N 09°12' E 073°24'25 8.2 080 / 101012.3 28.7
2019-Dec-07 00:04N 08°48' E 073°18'25 8.2 090 / 171009.6 28.6
2019-Dec-06 21:04N 08°24' E 073°12'22 7.2 070 / 101009.6 27.7
2019-Dec-06 18:04N 08°06' E 073°00'13 4.5 160 / 61011.9 28.4
2019-Dec-06 15:04N 08°18' E 072°54'8 2.8 120 / 41011.5 28.8
2019-Dec-06 12:04N 08°24' E 072°48'0 0.0 090 / 81009.1 29.3
2019-Dec-06 08:34N 08°24' E 072°48'13 5.3 070 / 81010.0 30.5
2019-Dec-06 06:04N 08°30' E 073°00'17 5.6 090 / 101012.0 29.3
2019-Dec-06 03:04N 08°18' E 073°12'6 1.7 100 / 121012.4 28.7
2019-Dec-05 23:34N 08°24' E 073°12'6 2.4 080 / 121010.1 28.2
2019-Dec-05 21:04N 08°18' E 073°12'0 0.0 090 / 141010.3 28.1
2019-Dec-05 18:04N 08°18' E 073°12'0 0.0 120 / 171012.9 26.7
2019-Dec-05 15:04N 08°18' E 073°12'6 2.0 100 / 101012.2 28.4
2019-Dec-05 12:04N 08°18' E 073°18'6 2.0 120 / 101009.7 28.3
2019-Dec-05 09:04N 08°12' E 073°18'6 1.7 080 / 121009.8 28.4
2019-Dec-05 05:34N 08°18' E 073°18'0 0.0 140 / 61014.0 28.4
2019-Dec-05 03:04N 08°18' E 073°18'6 2.0 170 / 101013.8 27.5
2019-Dec-05 00:04N 08°18' E 073°12'6 2.0 160 / 121010.8 27.0
2019-Dec-04 21:04N 08°18' E 073°06'8 2.8 160 / 141010.9 27.5
2019-Dec-04 18:04N 08°12' E 073°12'6 2.0 130 / 121012.9 28.5
2019-Dec-04 15:04N 08°18' E 073°12'13 3.8 110 / 81012.4 28.4
2019-Dec-04 11:34N 08°06' E 073°18'6 2.4 020 / 41009.2 28.4
2019-Dec-04 09:04N 08°12' E 073°18'6 2.0 080 / 21009.3 28.7
2019-Dec-04 06:04N 08°12' E 073°12'6 2.0 050 1011.8 30.8
2019-Dec-04 03:04N 08°12' E 073°18'8 2.4 130 / 21011.7 28.6
2019-Dec-03 23:34N 08°18' E 073°12'0 0.0 230 / 21008.9 25.8
2019-Dec-03 21:04N 08°18' E 073°12'6 1.7 080 / 21009.5 24.0
2019-Dec-03 17:34N 08°18' E 073°18'6 2.4 070 / 21011.6 25.6
2019-Dec-03 15:04N 08°18' E 073°12'0 0.0 100 / 101010.6 27.7
2019-Dec-03 12:04N 08°18' E 073°12'6 2.0 090 / 141008.4 25.1
2019-Dec-03 09:04N 08°18' E 073°06'13 3.8 150 / 81008.1 29.5
2019-Dec-03 05:34N 08°12' E 073°18'6 2.4 140 / 121011.2 29.1
2019-Dec-03 03:04N 08°18' E 073°18'13 3.8 150 / 121011.1 28.4
2019-Dec-02 23:34N 08°30' E 073°12'0 0.0 180 / 141008.4 27.5
2019-Dec-02 21:04N 08°30' E 073°12'6 2.0 150 / 191008.3 27.4
2019-Dec-02 18:04N 08°24' E 073°12'6 2.0 160 / 161010.4 28.3
2019-Dec-02 15:04N 08°18' E 073°12'8 2.8 180 / 161010.4 28.1
2019-Dec-02 12:04N 08°12' E 073°18'6 2.0 190 / 161007.9 28.4
2019-Dec-02 09:04N 08°18' E 073°18'6 2.0 230 / 141007.9 28.1
2019-Dec-02 06:04N 08°12' E 073°18'6 2.0 200 / 121010.8 28.8
2019-Dec-02 03:04N 08°18' E 073°18'8 2.8 180 / 141010.2 27.0
2019-Dec-02 00:04N 08°24' E 073°12'25 8.2 250 / 191007.6 26.9
2019-Dec-01 21:04N 08°48' E 073°06'31 8.7 140 / 101007.7 26.1
2019-Dec-01 17:34N 09°18' E 073°00'   110 / 141010.2 27.7

Dump ship's entire track history